sensor_id;sensor_type;location;lat;lon;timestamp;temperature;humidity
45315;SHT31;31051;51.540;5.852;2023-06-10T00:10:25;20.1;62.0
45315;SHT31;31051;51.540;5.852;2023-06-10T00:23:13;19.6;63.4
45315;SHT31;31051;51.540;5.852;2023-06-10T00:36:02;19.1;65.3
45315;SHT31;31051;51.540;5.852;2023-06-10T00:49:01;18.7;66.4
45315;SHT31;31051;51.540;5.852;2023-06-10T01:01:50;18.3;67.4
45315;SHT31;31051;51.540;5.852;2023-06-10T01:14:50;18.0;68.3
45315;SHT31;31051;51.540;5.852;2023-06-10T01:27:48;17.6;69.8
45315;SHT31;31051;51.540;5.852;2023-06-10T01:40:37;17.3;70.8
45315;SHT31;31051;51.540;5.852;2023-06-10T01:53:37;17.0;72.7
45315;SHT31;31051;51.540;5.852;2023-06-10T02:06:36;16.8;73.4
45315;SHT31;31051;51.540;5.852;2023-06-10T02:19:36;16.6;74.4
45315;SHT31;31051;51.540;5.852;2023-06-10T02:32:35;16.4;74.8
45315;SHT31;31051;51.540;5.852;2023-06-10T02:45:34;16.2;75.5
45315;SHT31;31051;51.540;5.852;2023-06-10T02:58:34;15.9;76.0
45315;SHT31;31051;51.540;5.852;2023-06-10T03:11:33;15.7;77.0
45315;SHT31;31051;51.540;5.852;2023-06-10T03:24:32;15.5;77.7
45315;SHT31;31051;51.540;5.852;2023-06-10T03:37:20;15.4;78.5
45315;SHT31;31051;51.540;5.852;2023-06-10T03:50:09;15.3;79.1
45315;SHT31;31051;51.540;5.852;2023-06-10T04:03:09;15.4;79.6
45315;SHT31;31051;51.540;5.852;2023-06-10T04:16:08;15.5;79.8
45315;SHT31;31051;51.540;5.852;2023-06-10T04:29:07;15.9;79.5
45315;SHT31;31051;51.540;5.852;2023-06-10T04:42:07;16.4;78.8
45315;SHT31;31051;51.540;5.852;2023-06-10T04:55:06;17.0;76.5
45315;SHT31;31051;51.540;5.852;2023-06-10T05:08:06;17.7;72.3
45315;SHT31;31051;51.540;5.852;2023-06-10T05:21:04;18.3;70.5
45315;SHT31;31051;51.540;5.852;2023-06-10T05:33:53;18.9;67.6
45315;SHT31;31051;51.540;5.852;2023-06-10T05:46:53;19.5;65.8
45315;SHT31;31051;51.540;5.852;2023-06-10T05:59:51;19.9;65.0
45315;SHT31;31051;51.540;5.852;2023-06-10T06:12:40;20.3;63.3
45315;SHT31;31051;51.540;5.852;2023-06-10T06:25:29;21.3;62.1
45315;SHT31;31051;51.540;5.852;2023-06-10T06:38:27;22.4;57.3
45315;SHT31;31051;51.540;5.852;2023-06-10T06:51:16;23.2;55.6
45315;SHT31;31051;51.540;5.852;2023-06-10T07:04:13;24.4;51.4
45315;SHT31;31051;51.540;5.852;2023-06-10T07:17:01;25.7;47.8
45315;SHT31;31051;51.540;5.852;2023-06-10T07:42:36;27.3;42.7
45315;SHT31;31051;51.540;5.852;2023-06-10T07:55:23;28.5;42.3
45315;SHT31;31051;51.540;5.852;2023-06-10T08:08:11;29.0;40.4
45315;SHT31;31051;51.540;5.852;2023-06-10T08:20:58;29.4;38.0
45315;SHT31;31051;51.540;5.852;2023-06-10T08:33:46;30.1;38.0
45315;SHT31;31051;51.540;5.852;2023-06-10T08:46:33;31.0;38.2
45315;SHT31;31051;51.540;5.852;2023-06-10T08:59:21;30.3;36.8
45315;SHT31;31051;51.540;5.852;2023-06-10T09:12:08;30.2;38.4
45315;SHT31;31051;51.540;5.852;2023-06-10T09:24:56;30.1;38.7
45315;SHT31;31051;51.540;5.852;2023-06-10T09:37:43;30.3;38.8
45315;SHT31;31051;51.540;5.852;2023-06-10T09:50:31;30.7;37.6
45315;SHT31;31051;51.540;5.852;2023-06-10T10:03:18;30.9;37.4
45315;SHT31;31051;51.540;5.852;2023-06-10T10:16:06;31.4;37.3
45315;SHT31;31051;51.540;5.852;2023-06-10T10:28:53;31.6;36.0
45315;SHT31;31051;51.540;5.852;2023-06-10T10:41:41;31.8;34.5
45315;SHT31;31051;51.540;5.852;2023-06-10T10:54:28;32.7;34.1
45315;SHT31;31051;51.540;5.852;2023-06-10T11:07:16;32.1;34.6
45315;SHT31;31051;51.540;5.852;2023-06-10T11:20:03;32.6;32.8
45315;SHT31;31051;51.540;5.852;2023-06-10T11:32:51;32.8;34.0
45315;SHT31;31051;51.540;5.852;2023-06-10T11:45:38;33.7;32.2
45315;SHT31;31051;51.540;5.852;2023-06-10T11:58:26;32.9;32.0
45315;SHT31;31051;51.540;5.852;2023-06-10T12:11:14;33.9;30.9
45315;SHT31;31051;51.540;5.852;2023-06-10T12:24:01;34.3;29.0
45315;SHT31;31051;51.540;5.852;2023-06-10T12:36:49;34.9;28.5
45315;SHT31;31051;51.540;5.852;2023-06-10T12:49:36;34.4;28.5
45315;SHT31;31051;51.540;5.852;2023-06-10T13:02:24;33.8;28.2
45315;SHT31;31051;51.540;5.852;2023-06-10T13:15:12;34.9;28.2
45315;SHT31;31051;51.540;5.852;2023-06-10T13:27:59;34.6;26.6
45315;SHT31;31051;51.540;5.852;2023-06-10T13:40:47;33.7;29.6
45315;SHT31;31051;51.540;5.852;2023-06-10T13:53:34;34.0;26.4
45315;SHT31;31051;51.540;5.852;2023-06-10T14:06:22;32.7;29.8
45315;SHT31;31051;51.540;5.852;2023-06-10T14:19:09;32.7;30.4
45315;SHT31;31051;51.540;5.852;2023-06-10T14:31:57;32.5;30.3
45315;SHT31;31051;51.540;5.852;2023-06-10T14:44:45;32.8;29.7
45315;SHT31;31051;51.540;5.852;2023-06-10T14:57:32;33.0;29.3
45315;SHT31;31051;51.540;5.852;2023-06-10T15:10:20;32.8;29.1
45315;SHT31;31051;51.540;5.852;2023-06-10T15:23:07;33.1;29.4
45315;SHT31;31051;51.540;5.852;2023-06-10T15:35:55;32.0;31.2
45315;SHT31;31051;51.540;5.852;2023-06-10T15:48:42;32.3;31.5
45315;SHT31;31051;51.540;5.852;2023-06-10T16:01:30;32.4;30.1
45315;SHT31;31051;51.540;5.852;2023-06-10T16:14:17;32.5;30.0
45315;SHT31;31051;51.540;5.852;2023-06-10T16:27:05;32.3;30.6
45315;SHT31;31051;51.540;5.852;2023-06-10T16:39:53;31.8;32.2
45315;SHT31;31051;51.540;5.852;2023-06-10T16:52:40;30.9;33.6
45315;SHT31;31051;51.540;5.852;2023-06-10T17:05:28;31.2;33.3
45315;SHT31;31051;51.540;5.852;2023-06-10T17:18:15;31.7;33.7
45315;SHT31;31051;51.540;5.852;2023-06-10T17:31:03;31.4;34.5
45315;SHT31;31051;51.540;5.852;2023-06-10T17:43:50;31.0;35.1
45315;SHT31;31051;51.540;5.852;2023-06-10T17:56:38;30.5;36.3
45315;SHT31;31051;51.540;5.852;2023-06-10T18:09:25;30.0;37.9
45315;SHT31;31051;51.540;5.852;2023-06-10T18:22:13;29.4;38.0
45315;SHT31;31051;51.540;5.852;2023-06-10T18:35:00;29.3;38.0
45315;SHT31;31051;51.540;5.852;2023-06-10T18:47:48;28.7;39.1
45315;SHT31;31051;51.540;5.852;2023-06-10T19:00:35;28.2;40.9
45315;SHT31;31051;51.540;5.852;2023-06-10T19:13:23;27.6;42.0
45315;SHT31;31051;51.540;5.852;2023-06-10T19:26:10;27.1;44.2
45315;SHT31;31051;51.540;5.852;2023-06-10T19:38:58;26.4;45.9
45315;SHT31;31051;51.540;5.852;2023-06-10T19:51:45;25.7;47.8
45315;SHT31;31051;51.540;5.852;2023-06-10T20:04:33;25.1;49.0
45315;SHT31;31051;51.540;5.852;2023-06-10T20:17:20;24.7;49.3
45315;SHT31;31051;51.540;5.852;2023-06-10T20:30:07;24.4;50.1
45315;SHT31;31051;51.540;5.852;2023-06-10T20:42:55;24.0;51.9
45315;SHT31;31051;51.540;5.852;2023-06-10T20:55:42;23.5;54.0
45315;SHT31;31051;51.540;5.852;2023-06-10T21:08:30;22.8;56.2
45315;SHT31;31051;51.540;5.852;2023-06-10T21:21:18;22.2;58.5
45315;SHT31;31051;51.540;5.852;2023-06-10T21:34:17;21.5;60.6
45315;SHT31;31051;51.540;5.852;2023-06-10T21:47:15;21.2;62.0
45315;SHT31;31051;51.540;5.852;2023-06-10T22:00:14;20.9;62.7
45315;SHT31;31051;51.540;5.852;2023-06-10T22:13:02;20.5;63.5
45315;SHT31;31051;51.540;5.852;2023-06-10T22:38:39;20.1;65.5
45315;SHT31;31051;51.540;5.852;2023-06-10T22:51:37;19.9;66.3
45315;SHT31;31051;51.540;5.852;2023-06-10T23:04:26;19.7;67.2
45315;SHT31;31051;51.540;5.852;2023-06-10T23:17:14;19.4;68.6
45315;SHT31;31051;51.540;5.852;2023-06-10T23:30:02;19.0;70.1
45315;SHT31;31051;51.540;5.852;2023-06-10T23:42:52;18.7;70.9
45315;SHT31;31051;51.540;5.852;2023-06-10T23:55:50;18.6;71.4
